createdAt,value
2023-10-13T00:01:31.727Z,100.00
2023-10-13T00:04:00.251Z,100.00
2023-10-13T00:06:28.168Z,100.00
2023-10-13T00:08:55.845Z,99.15
2023-10-13T00:11:23.825Z,98.89
2023-10-13T00:13:51.436Z,98.62
2023-10-13T00:16:19.640Z,98.27
2023-10-13T00:18:48.260Z,98.76
2023-10-13T00:21:16.235Z,98.60
2023-10-13T00:23:45.425Z,98.95
2023-10-13T00:26:13.473Z,98.59
2023-10-13T00:28:41.879Z,98.97
2023-10-13T00:31:09.619Z,99.01
2023-10-13T00:33:38.752Z,99.10
2023-10-13T00:36:06.861Z,98.44
2023-10-13T00:38:34.647Z,98.86
2023-10-13T00:41:02.471Z,98.85
2023-10-13T00:43:30.175Z,99.09
2023-10-13T00:45:59.200Z,99.38
2023-10-13T00:48:30.061Z,99.72
2023-10-13T00:50:58.740Z,99.98
2023-10-13T00:53:26.652Z,99.94
2023-10-13T00:55:54.592Z,100.00
2023-10-13T00:58:22.983Z,100.00
2023-10-13T01:00:51.023Z,100.00
2023-10-13T01:03:19.137Z,100.00
2023-10-13T01:05:46.835Z,100.00
2023-10-13T01:08:14.390Z,100.00
2023-10-13T01:10:42.669Z,100.00
2023-10-13T01:13:10.426Z,100.00
2023-10-13T01:15:38.034Z,100.00
2023-10-13T01:18:12.657Z,100.00
2023-10-13T01:20:40.873Z,100.00
2023-10-13T01:23:12.605Z,100.00
2023-10-13T01:25:40.263Z,100.00
2023-10-13T01:28:08.265Z,100.00
2023-10-13T01:30:35.995Z,100.00
2023-10-13T01:33:04.032Z,100.00
2023-10-13T01:35:32.118Z,100.00
2023-10-13T01:38:00.175Z,100.00
2023-10-13T01:40:27.821Z,100.00
2023-10-13T01:42:55.842Z,100.00
2023-10-13T01:45:23.587Z,100.00
2023-10-13T01:47:51.304Z,100.00
2023-10-13T01:50:19.190Z,100.00
2023-10-13T01:52:46.740Z,100.00
2023-10-13T01:55:15.003Z,100.00
2023-10-13T01:57:43.154Z,100.00
2023-10-13T02:00:11.350Z,100.00
2023-10-13T02:02:39.812Z,100.00
2023-10-13T02:05:08.233Z,100.00
2023-10-13T02:07:36.418Z,100.00
2023-10-13T02:10:04.237Z,100.00
2023-10-13T02:12:32.355Z,100.00
2023-10-13T02:15:00.235Z,100.00
2023-10-13T02:17:27.965Z,100.00
2023-10-13T02:19:55.992Z,100.00
2023-10-13T02:22:23.665Z,100.00
2023-10-13T02:24:51.377Z,100.00
2023-10-13T02:27:19.319Z,100.00
2023-10-13T02:29:50.639Z,100.00
2023-10-13T02:32:19.677Z,100.00
2023-10-13T02:34:48.219Z,100.00
2023-10-13T02:37:15.856Z,100.00
2023-10-13T02:39:43.494Z,100.00
2023-10-13T02:42:11.749Z,100.00
2023-10-13T02:44:39.739Z,100.00
2023-10-13T02:47:07.399Z,100.00
2023-10-13T02:49:35.448Z,100.00
2023-10-13T02:52:03.074Z,100.00
2023-10-13T02:54:30.708Z,100.00
2023-10-13T02:56:59.456Z,100.00
2023-10-13T02:59:28.066Z,100.00
2023-10-13T03:01:55.781Z,100.00
2023-10-13T03:04:23.752Z,100.00
2023-10-13T03:06:51.420Z,100.00
2023-10-13T03:09:19.430Z,100.00
2023-10-13T03:11:51.523Z,100.00
2023-10-13T03:14:20.478Z,100.00
2023-10-13T03:16:49.071Z,100.00
2023-10-13T03:19:16.791Z,100.00
2023-10-13T03:21:44.493Z,100.00
2023-10-13T03:24:12.354Z,100.00
2023-10-13T03:26:40.191Z,100.00
2023-10-13T03:29:07.784Z,100.00
2023-10-13T03:31:35.927Z,100.00
2023-10-13T03:34:05.541Z,100.00
2023-10-13T03:36:33.219Z,100.00
2023-10-13T03:39:01.146Z,100.00
2023-10-13T03:41:28.895Z,100.00
2023-10-13T03:43:56.656Z,100.00
2023-10-13T03:46:24.655Z,100.00
2023-10-13T03:48:52.269Z,100.00
2023-10-13T03:51:20.025Z,100.00
2023-10-13T03:53:48.192Z,100.00
2023-10-13T03:56:15.923Z,100.00
2023-10-13T03:58:43.783Z,100.00
2023-10-13T04:01:11.846Z,100.00
2023-10-13T04:03:39.868Z,100.00
2023-10-13T04:06:07.760Z,100.00
2023-10-13T04:08:35.594Z,100.00
2023-10-13T04:11:03.542Z,100.00
2023-10-13T04:13:31.144Z,100.00
2023-10-13T04:16:00.837Z,100.00
2023-10-13T04:18:28.710Z,100.00
2023-10-13T04:20:56.448Z,100.00
2023-10-13T04:23:24.060Z,100.00
2023-10-13T04:25:52.057Z,100.00
2023-10-13T04:28:19.673Z,100.00
2023-10-13T04:30:49.229Z,100.00
2023-10-13T04:33:17.176Z,100.00
2023-10-13T04:35:44.879Z,100.00
2023-10-13T04:38:12.542Z,100.00
2023-10-13T04:40:42.480Z,100.00
2023-10-13T04:43:10.163Z,100.00
2023-10-13T04:45:37.783Z,100.00
2023-10-13T04:48:06.332Z,100.00
2023-10-13T04:50:34.096Z,100.00
2023-10-13T04:53:01.658Z,100.00
2023-10-13T04:55:29.766Z,100.00
2023-10-13T04:57:57.574Z,100.00
2023-10-13T05:00:25.361Z,100.00
2023-10-13T05:02:53.518Z,100.00
2023-10-13T05:05:21.320Z,100.00
2023-10-13T05:07:49.420Z,100.00
2023-10-13T05:10:19.126Z,100.00
2023-10-13T05:12:47.306Z,100.00
2023-10-13T05:15:15.054Z,100.00
2023-10-13T05:17:43.215Z,100.00
2023-10-13T05:20:11.220Z,100.00
2023-10-13T05:22:39.034Z,100.00
2023-10-13T05:25:09.822Z,100.00
2023-10-13T05:27:37.657Z,100.00
2023-10-13T05:30:06.523Z,100.00
2023-10-13T05:32:34.855Z,100.00
2023-10-13T05:35:02.519Z,100.00
2023-10-13T05:37:30.372Z,100.00
2023-10-13T05:39:58.454Z,100.00
2023-10-13T05:42:26.176Z,100.00
2023-10-13T05:44:54.114Z,100.00
2023-10-13T05:47:22.323Z,100.00
2023-10-13T05:49:50.112Z,100.00
2023-10-13T05:52:17.871Z,100.00
2023-10-13T05:54:48.710Z,100.00
2023-10-13T05:57:16.323Z,100.00
2023-10-13T05:59:44.034Z,100.00
2023-10-13T06:02:12.392Z,100.00
2023-10-13T06:04:40.473Z,100.00
2023-10-13T06:07:08.150Z,100.00
2023-10-13T06:09:35.820Z,100.00
2023-10-13T06:12:04.023Z,100.00
2023-10-13T06:14:31.671Z,100.00
2023-10-13T06:17:00.059Z,100.00
2023-10-13T06:19:28.057Z,100.00
2023-10-13T06:21:55.728Z,100.00
2023-10-13T06:24:23.638Z,100.00
2023-10-13T06:26:51.669Z,100.00
2023-10-13T06:29:19.561Z,100.00
2023-10-13T06:31:47.628Z,100.00
2023-10-13T06:34:15.760Z,100.00
2023-10-13T06:36:43.449Z,100.00
2023-10-13T06:39:11.135Z,100.00
2023-10-13T06:41:39.159Z,100.00
2023-10-13T06:44:08.995Z,100.00
2023-10-13T06:46:36.740Z,100.00
2023-10-13T06:49:04.812Z,100.00
2023-10-13T06:51:32.901Z,100.00
2023-10-13T06:54:00.885Z,100.00
2023-10-13T06:56:28.915Z,100.00
2023-10-13T06:58:57.350Z,100.00
2023-10-13T07:01:25.247Z,100.00
2023-10-13T07:03:53.403Z,100.00
2023-10-13T07:06:24.105Z,100.00
2023-10-13T07:08:51.850Z,100.00
2023-10-13T07:11:25.471Z,100.00
2023-10-13T07:13:53.309Z,100.00
2023-10-13T07:16:29.919Z,100.00
2023-10-13T07:18:58.216Z,100.00
2023-10-13T07:21:26.400Z,100.00
2023-10-13T07:23:54.193Z,100.00
2023-10-13T07:26:21.837Z,100.00
2023-10-13T07:28:49.918Z,100.00
2023-10-13T07:31:17.810Z,100.00
2023-10-13T07:33:45.604Z,100.00
2023-10-13T07:36:14.070Z,100.00
2023-10-13T07:38:41.869Z,100.00
2023-10-13T07:41:10.484Z,100.00
2023-10-13T07:43:38.717Z,100.00
2023-10-13T07:46:06.741Z,100.00
2023-10-13T07:48:34.771Z,100.00
2023-10-13T07:51:08.358Z,100.00
2023-10-13T07:53:36.112Z,100.00
2023-10-13T07:56:04.481Z,100.00
2023-10-13T07:58:32.849Z,100.00
2023-10-13T08:01:01.262Z,100.00
2023-10-13T08:03:29.628Z,100.00
2023-10-13T08:05:57.481Z,100.00
2023-10-13T08:08:25.841Z,100.00
2023-10-13T08:10:54.047Z,100.00
2023-10-13T08:13:21.813Z,100.00
2023-10-13T08:15:49.777Z,100.00
2023-10-13T08:18:17.917Z,100.00
2023-10-13T08:20:45.679Z,100.00
2023-10-13T08:23:13.399Z,100.00
2023-10-13T08:25:42.298Z,100.00
2023-10-13T08:28:09.938Z,100.00
2023-10-13T08:30:37.655Z,100.00
2023-10-13T08:33:05.619Z,100.00
2023-10-13T08:35:33.482Z,100.00
2023-10-13T08:38:11.404Z,100.00
2023-10-13T08:40:50.069Z,100.00
2023-10-13T08:43:17.700Z,99.90
2023-10-13T08:45:45.382Z,99.86
2023-10-13T08:48:14.457Z,99.82
2023-10-13T08:50:47.136Z,99.80
2023-10-13T08:53:24.299Z,99.50
2023-10-13T08:55:52.199Z,99.78
2023-10-13T08:58:20.293Z,98.98
2023-10-13T09:00:48.834Z,98.20
2023-10-13T09:03:17.102Z,96.71
2023-10-13T09:05:45.982Z,96.55
2023-10-13T09:08:13.860Z,96.26
2023-10-13T09:10:41.578Z,96.11
2023-10-13T09:13:09.622Z,94.86
2023-10-13T09:15:37.323Z,94.34
2023-10-13T09:18:05.253Z,96.19
2023-10-13T09:20:33.389Z,96.23
2023-10-13T09:23:09.351Z,95.65
2023-10-13T09:25:41.472Z,95.02
2023-10-13T09:28:14.341Z,95.26
2023-10-13T09:30:52.856Z,95.93
2023-10-13T09:33:21.814Z,95.91
2023-10-13T09:35:50.048Z,95.20
2023-10-13T09:38:18.189Z,95.66
2023-10-13T09:40:46.288Z,92.61
2023-10-13T09:43:14.428Z,91.91
2023-10-13T09:45:42.963Z,89.85
2023-10-13T09:48:16.753Z,89.17
2023-10-13T09:50:48.000Z,88.08
2023-10-13T09:53:16.097Z,87.17
2023-10-13T09:55:53.165Z,87.07
2023-10-13T09:58:22.630Z,85.61
2023-10-13T10:00:53.252Z,84.87
2023-10-13T10:03:24.616Z,84.60
2023-10-13T10:06:03.006Z,81.92
2023-10-13T10:08:31.961Z,82.90
2023-10-13T10:11:51.474Z,79.95
2023-10-13T10:14:24.958Z,77.65
2023-10-13T10:17:05.797Z,78.12
2023-10-13T10:19:34.946Z,77.10
2023-10-13T10:22:05.974Z,75.16
2023-10-13T10:24:34.073Z,74.60
2023-10-13T10:27:01.710Z,72.64
2023-10-13T10:29:29.790Z,72.43
2023-10-13T10:31:58.022Z,72.99
2023-10-13T10:34:31.723Z,72.90
2023-10-13T10:37:01.282Z,71.48
2023-10-13T10:39:38.031Z,70.72
2023-10-13T10:42:13.701Z,71.60
2023-10-13T10:44:42.141Z,71.20
2023-10-13T10:47:14.810Z,68.30
2023-10-13T10:49:43.066Z,67.94
2023-10-13T10:52:11.825Z,68.80
2023-10-13T10:54:39.616Z,67.99
2023-10-13T10:57:07.370Z,67.87
2023-10-13T10:59:35.921Z,68.01
2023-10-13T11:02:03.701Z,67.44
2023-10-13T11:04:31.413Z,67.22
2023-10-13T11:07:00.181Z,66.91
2023-10-13T11:09:27.803Z,66.22
2023-10-13T11:11:55.697Z,65.43
2023-10-13T11:14:28.337Z,64.83
2023-10-13T11:16:57.786Z,64.16
2023-10-13T11:19:36.695Z,64.04
2023-10-13T11:22:31.074Z,61.97
2023-10-13T11:25:00.662Z,62.04
2023-10-13T11:27:33.284Z,63.02
2023-10-13T11:30:01.289Z,63.23
2023-10-13T11:32:29.128Z,64.38
2023-10-13T11:37:24.722Z,62.87
2023-10-13T11:39:52.501Z,62.92
2023-10-13T11:42:20.723Z,61.64
2023-10-13T11:44:50.085Z,61.33
2023-10-13T11:47:17.970Z,61.20
2023-10-13T11:49:45.904Z,60.22
2023-10-13T11:52:15.851Z,61.80
2023-10-13T11:54:44.811Z,61.64
2023-10-13T11:57:12.655Z,62.65
2023-10-13T11:59:40.727Z,60.11
2023-10-13T12:02:08.606Z,60.03
2023-10-13T12:04:37.490Z,59.88
2023-10-13T12:07:05.276Z,59.67
2023-10-13T12:09:32.975Z,62.19
2023-10-13T12:12:01.138Z,62.96
2023-10-13T12:14:28.993Z,61.99
2023-10-13T12:16:57.581Z,63.51
2023-10-13T12:19:26.351Z,62.43
2023-10-13T12:21:58.446Z,61.50
2023-10-13T12:24:28.868Z,61.69
2023-10-13T12:26:56.648Z,63.11
2023-10-13T12:29:25.269Z,63.50
2023-10-13T12:31:53.751Z,62.72
2023-10-13T12:34:21.675Z,62.07
2023-10-13T12:36:49.498Z,62.37
2023-10-13T12:39:17.593Z,62.28
2023-10-13T12:41:45.277Z,62.16
2023-10-13T12:44:13.014Z,61.35
2023-10-13T12:46:41.282Z,61.38
2023-10-13T12:49:09.503Z,61.64
2023-10-13T12:51:37.731Z,61.82
2023-10-13T12:54:23.651Z,62.04
2023-10-13T12:57:26.196Z,62.25
2023-10-13T13:00:08.685Z,60.91
2023-10-13T13:02:38.487Z,61.31
2023-10-13T13:05:15.340Z,61.46
2023-10-13T13:07:45.708Z,59.97
2023-10-13T13:10:21.390Z,58.86
2023-10-13T13:12:51.325Z,58.04
2023-10-13T13:15:23.997Z,56.44
2023-10-13T13:17:55.570Z,56.30
2023-10-13T13:20:26.673Z,55.74
2023-10-13T13:22:55.186Z,55.00
2023-10-13T13:25:27.421Z,54.91
2023-10-13T13:27:57.252Z,53.20
2023-10-13T13:30:26.414Z,52.95
2023-10-13T13:32:54.591Z,52.64
2023-10-13T13:35:25.551Z,52.34
2023-10-13T13:37:54.715Z,52.59
2023-10-13T13:40:25.707Z,51.70
2023-10-13T13:43:08.754Z,52.41
2023-10-13T13:45:37.212Z,51.74
2023-10-13T13:48:21.041Z,51.59
2023-10-13T13:50:51.246Z,50.43
2023-10-13T13:53:21.518Z,50.27
2023-10-13T13:55:49.265Z,45.51
2023-10-13T13:58:20.191Z,44.61
2023-10-13T14:00:48.783Z,44.64
2023-10-13T14:03:51.371Z,44.72
2023-10-13T14:06:21.861Z,44.31
2023-10-13T14:09:14.846Z,44.32
2023-10-13T14:11:43.002Z,44.60
2023-10-13T14:14:16.922Z,45.94
2023-10-13T14:16:44.803Z,46.43
2023-10-13T14:19:13.116Z,46.45
2023-10-13T14:21:40.953Z,46.42
2023-10-13T14:24:10.898Z,46.03
2023-10-13T14:26:39.014Z,47.24
2023-10-13T14:29:07.920Z,47.28
2023-10-13T14:31:36.625Z,46.91
2023-10-13T14:34:04.690Z,47.08
2023-10-13T14:36:32.262Z,47.12
2023-10-13T14:39:00.179Z,47.27
2023-10-13T14:41:28.265Z,47.29
2023-10-13T14:43:57.300Z,47.88
2023-10-13T14:46:25.135Z,47.85
2023-10-13T14:48:53.609Z,48.43
2023-10-13T14:51:21.623Z,48.09
2023-10-13T14:53:51.909Z,48.76
2023-10-13T14:56:21.485Z,48.61
2023-10-13T14:58:49.214Z,48.21
2023-10-13T15:01:18.453Z,48.83
2023-10-13T15:03:50.734Z,49.09
2023-10-13T15:06:19.444Z,49.35
2023-10-13T15:08:48.401Z,49.35
2023-10-13T15:11:16.121Z,49.40
2023-10-13T15:13:43.765Z,49.70
2023-10-13T15:16:22.797Z,50.34
2023-10-13T15:18:52.576Z,50.07
2023-10-13T15:21:24.306Z,50.12
2023-10-13T15:23:51.984Z,50.51
2023-10-13T15:26:20.595Z,51.02
2023-10-13T15:28:48.726Z,51.40
2023-10-13T15:31:17.305Z,52.82
2023-10-13T15:33:51.877Z,53.43
2023-10-13T15:36:19.632Z,55.15
2023-10-13T15:38:47.591Z,55.46
2023-10-13T15:41:21.272Z,56.19
2023-10-13T15:43:49.437Z,57.61
2023-10-13T15:47:13.364Z,58.51
2023-10-13T15:49:14.511Z,60.24
2023-10-13T15:51:43.286Z,60.69
2023-10-13T15:54:11.997Z,62.60
2023-10-13T15:56:39.786Z,62.90
2023-10-13T15:59:07.517Z,63.42
2023-10-13T16:01:35.536Z,63.51
2023-10-13T16:04:03.716Z,64.32
2023-10-13T16:06:31.667Z,65.11
2023-10-13T16:08:59.932Z,65.30
2023-10-13T16:11:28.108Z,65.13
2023-10-13T16:13:55.887Z,64.77
2023-10-13T16:16:28.876Z,63.73
2023-10-13T16:18:58.573Z,63.24
2023-10-13T16:21:27.863Z,63.10
2023-10-13T16:23:55.608Z,62.80
2023-10-13T16:26:26.209Z,62.28
2023-10-13T16:28:53.877Z,62.51
2023-10-13T16:31:21.872Z,62.75
2023-10-13T16:33:50.771Z,62.81
2023-10-13T16:36:19.133Z,63.74
2023-10-13T16:38:47.402Z,64.13
2023-10-13T16:41:18.534Z,64.79
2023-10-13T16:43:48.601Z,64.32
2023-10-13T16:46:16.547Z,65.16
2023-10-13T16:48:46.320Z,65.98
2023-10-13T16:51:14.525Z,66.77
2023-10-13T16:53:49.047Z,66.86
2023-10-13T16:56:17.304Z,67.24
2023-10-13T16:58:45.991Z,67.27
2023-10-13T17:01:14.637Z,67.08
2023-10-13T17:03:46.655Z,68.06
2023-10-13T17:06:14.686Z,68.91
2023-10-13T17:08:42.429Z,68.78
2023-10-13T17:11:14.282Z,69.41
2023-10-13T17:13:44.333Z,70.57
2023-10-13T17:16:16.054Z,71.33
2023-10-13T17:18:45.294Z,71.56
2023-10-13T17:21:24.179Z,71.09
2023-10-13T17:23:55.343Z,71.40
2023-10-13T17:26:24.283Z,71.18
2023-10-13T17:28:52.386Z,70.65
2023-10-13T17:31:20.252Z,72.13
2023-10-13T17:33:48.315Z,73.22
2023-10-13T17:36:16.556Z,74.50
2023-10-13T17:38:44.338Z,74.20
2023-10-13T17:41:13.053Z,74.15
2023-10-13T17:43:41.596Z,73.55
2023-10-13T17:46:10.737Z,73.21
2023-10-13T17:48:39.289Z,73.04
2023-10-13T17:51:08.200Z,72.95
2023-10-13T17:53:36.672Z,72.28
2023-10-13T17:56:12.614Z,72.87
2023-10-13T17:58:41.252Z,73.04
2023-10-13T18:01:16.007Z,73.27
2023-10-13T18:03:54.741Z,73.82
2023-10-13T18:06:23.653Z,73.74
2023-10-13T18:08:56.451Z,73.87
2023-10-13T18:11:25.873Z,73.67
2023-10-13T18:13:53.633Z,73.91
2023-10-13T18:16:24.694Z,74.42
2023-10-13T18:18:52.310Z,75.39
2023-10-13T18:21:19.952Z,75.70
2023-10-13T18:23:51.107Z,75.95
2023-10-13T18:26:18.755Z,76.22
2023-10-13T18:28:49.179Z,75.94
2023-10-13T18:31:16.956Z,75.61
2023-10-13T18:33:44.668Z,75.60
2023-10-13T18:36:12.885Z,75.72
2023-10-13T18:38:41.251Z,76.35
2023-10-13T18:41:09.035Z,76.14
2023-10-13T18:43:36.606Z,76.97
2023-10-13T18:46:04.433Z,78.20
2023-10-13T18:48:32.071Z,77.84
2023-10-13T18:50:59.973Z,77.79
2023-10-13T18:53:27.511Z,79.26
2023-10-13T18:55:55.289Z,80.20
2023-10-13T18:58:23.118Z,80.47
2023-10-13T19:00:51.048Z,80.36
2023-10-13T19:03:18.649Z,80.93
2023-10-13T19:05:46.427Z,81.22
2023-10-13T19:08:14.238Z,82.35
2023-10-13T19:10:41.855Z,82.46
2023-10-13T19:13:09.529Z,82.23
2023-10-13T19:15:37.779Z,82.53
2023-10-13T19:18:05.627Z,83.61
2023-10-13T19:20:33.374Z,84.33
2023-10-13T19:23:01.288Z,83.91
2023-10-13T19:25:28.993Z,84.34
2023-10-13T19:27:56.520Z,85.03
2023-10-13T19:30:24.410Z,85.12
2023-10-13T19:32:52.523Z,85.38
2023-10-13T19:35:20.420Z,85.87
2023-10-13T19:37:48.386Z,86.13
2023-10-13T19:40:15.911Z,88.06
2023-10-13T19:42:43.558Z,87.83
2023-10-13T19:45:11.575Z,85.92
2023-10-13T19:47:40.375Z,85.84
2023-10-13T19:50:08.807Z,87.20
2023-10-13T19:52:36.539Z,87.40
2023-10-13T19:55:04.770Z,85.77
2023-10-13T19:57:34.917Z,86.93
2023-10-13T20:00:03.909Z,88.00
2023-10-13T20:02:32.291Z,88.42
2023-10-13T20:05:00.287Z,87.72
2023-10-13T20:07:27.878Z,87.43
2023-10-13T20:09:55.845Z,87.79
2023-10-13T20:12:23.619Z,87.61
2023-10-13T20:14:51.333Z,88.01
2023-10-13T20:17:19.489Z,88.36
2023-10-13T20:19:47.088Z,88.78
2023-10-13T20:22:14.866Z,89.26
2023-10-13T20:24:43.056Z,89.64
2023-10-13T20:27:10.789Z,89.63
2023-10-13T20:29:38.531Z,89.45
2023-10-13T20:32:06.604Z,89.51
2023-10-13T20:34:34.195Z,90.78
2023-10-13T20:37:01.830Z,91.32
2023-10-13T20:39:29.961Z,91.18
2023-10-13T20:41:58.602Z,91.15
2023-10-13T20:44:27.009Z,91.53
2023-10-13T20:46:55.622Z,92.27
2023-10-13T20:49:24.162Z,92.48
2023-10-13T20:51:55.244Z,92.77
2023-10-13T20:54:23.330Z,92.70
2023-10-13T20:56:51.037Z,93.07
2023-10-13T20:59:18.600Z,92.97
2023-10-13T21:02:07.215Z,92.98
2023-10-13T21:04:36.776Z,93.93
2023-10-13T21:07:04.897Z,94.55
2023-10-13T21:09:32.630Z,94.10
2023-10-13T21:12:00.471Z,94.07
2023-10-13T21:14:28.422Z,94.41
2023-10-13T21:16:56.103Z,94.82
2023-10-13T21:19:24.073Z,95.03
2023-10-13T21:21:52.157Z,94.95
2023-10-13T21:24:19.873Z,95.47
2023-10-13T21:26:47.484Z,96.53
2023-10-13T21:29:15.520Z,96.30
2023-10-13T21:31:43.275Z,96.45
2023-10-13T21:34:11.217Z,96.59
2023-10-13T21:36:39.386Z,96.67
2023-10-13T21:39:07.124Z,96.36
2023-10-13T21:41:34.801Z,97.05
2023-10-13T21:44:02.745Z,97.49
2023-10-13T21:46:30.420Z,97.74
2023-10-13T21:48:58.450Z,97.85
2023-10-13T21:51:26.503Z,98.03
2023-10-13T21:53:54.080Z,98.05
2023-10-13T21:56:23.202Z,98.53
2023-10-13T21:58:51.574Z,98.93
2023-10-13T22:01:19.343Z,98.66
2023-10-13T22:03:51.308Z,98.04
2023-10-13T22:06:19.949Z,97.87
2023-10-13T22:08:48.494Z,98.22
2023-10-13T22:11:16.162Z,99.09
2023-10-13T22:13:43.817Z,98.59
2023-10-13T22:16:11.855Z,98.77
2023-10-13T22:18:40.814Z,98.50
2023-10-13T22:21:09.561Z,99.20
2023-10-13T22:23:37.974Z,98.93
2023-10-13T22:26:05.588Z,98.42
2023-10-13T22:28:33.225Z,97.63
2023-10-13T22:31:01.338Z,97.79
2023-10-13T22:33:29.140Z,97.81
2023-10-13T22:35:56.887Z,98.27
2023-10-13T22:38:24.780Z,98.01
2023-10-13T22:40:52.365Z,97.68
2023-10-13T22:43:20.094Z,97.73
2023-10-13T22:45:48.145Z,96.87
2023-10-13T22:48:16.050Z,96.81
2023-10-13T22:50:43.757Z,97.36
2023-10-13T22:53:11.747Z,97.28
2023-10-13T22:55:39.387Z,98.11
2023-10-13T22:58:07.036Z,98.10
2023-10-13T23:00:34.958Z,98.25
2023-10-13T23:03:02.675Z,98.15
2023-10-13T23:05:30.396Z,98.76
2023-10-13T23:07:58.909Z,98.37
2023-10-13T23:10:26.715Z,98.67
2023-10-13T23:12:54.363Z,98.19
2023-10-13T23:15:22.277Z,98.15
2023-10-13T23:17:49.864Z,98.62
2023-10-13T23:20:17.606Z,97.91
2023-10-13T23:22:45.640Z,97.69
2023-10-13T23:25:13.425Z,97.83
2023-10-13T23:27:41.125Z,98.35
2023-10-13T23:30:09.467Z,99.09
2023-10-13T23:32:37.180Z,99.07
2023-10-13T23:35:05.093Z,98.84
2023-10-13T23:37:33.500Z,99.45
2023-10-13T23:40:01.461Z,98.93
2023-10-13T23:42:29.206Z,99.65
2023-10-13T23:44:57.104Z,99.95
2023-10-13T23:47:24.874Z,100.00
2023-10-13T23:49:52.562Z,100.00
2023-10-13T23:52:20.488Z,99.65
2023-10-13T23:54:48.242Z,100.00
2023-10-13T23:57:15.955Z,100.00
2023-10-13T23:59:43.942Z,99.31
